createdAt,value
2022-12-11T00:01:32.203Z,34.03
2022-12-11T00:03:33.616Z,35.38
2022-12-11T00:05:34.951Z,36.13
2022-12-11T00:07:36.258Z,33.80
2022-12-11T00:09:37.710Z,33.25
2022-12-11T00:11:39.069Z,31.95
2022-12-11T00:13:40.434Z,31.48
2022-12-11T00:15:41.755Z,32.13
2022-12-11T00:17:43.081Z,33.40
2022-12-11T00:19:44.522Z,35.60
2022-12-11T00:21:45.848Z,36.03
2022-12-11T00:23:47.176Z,33.65
2022-12-11T00:25:48.477Z,32.53
2022-12-11T00:27:49.777Z,34.63
2022-12-11T00:29:51.134Z,32.85
2022-12-11T00:31:52.572Z,33.92
2022-12-11T00:33:54.008Z,31.88
2022-12-11T00:35:55.425Z,34.65
2022-12-11T00:37:56.801Z,33.90
2022-12-11T00:39:58.178Z,36.60
2022-12-11T00:41:59.585Z,37.55
2022-12-11T00:44:01.107Z,35.83
2022-12-11T00:46:02.675Z,36.35
2022-12-11T00:48:04.264Z,35.38
2022-12-11T00:50:05.924Z,32.30
2022-12-11T00:52:07.232Z,34.47
2022-12-11T00:54:08.562Z,32.08
2022-12-11T00:56:10.975Z,32.10
2022-12-11T00:58:12.931Z,36.90
2022-12-11T01:00:14.412Z,37.67
2022-12-11T01:02:15.748Z,31.55
2022-12-11T01:04:17.202Z,33.92
2022-12-11T01:06:20.052Z,32.38
2022-12-11T01:08:21.598Z,33.95
2022-12-11T01:10:26.239Z,34.05
2022-12-11T01:12:28.593Z,32.58
2022-12-11T01:14:29.919Z,34.53
2022-12-11T01:16:31.341Z,34.38
2022-12-11T01:18:32.645Z,31.25
2022-12-11T01:20:34.229Z,32.08
2022-12-11T01:22:35.572Z,32.97
2022-12-11T01:24:38.167Z,31.48
2022-12-11T01:26:39.533Z,36.17
2022-12-11T01:28:41.197Z,33.17
2022-12-11T01:30:43.708Z,33.65
2022-12-11T01:32:45.072Z,34.25
2022-12-11T01:34:46.427Z,31.10
2022-12-11T01:36:47.947Z,33.65
2022-12-11T01:38:49.801Z,34.13
2022-12-11T01:40:51.729Z,33.40
2022-12-11T01:42:53.175Z,31.08
2022-12-11T01:45:13.127Z,33.10
2022-12-11T01:47:14.600Z,33.03
2022-12-11T01:49:17.423Z,32.35
2022-12-11T01:51:18.714Z,33.70
2022-12-11T01:53:22.888Z,31.33
2022-12-11T01:55:24.442Z,30.50
2022-12-11T01:57:25.805Z,34.17
2022-12-11T01:59:28.580Z,32.60
2022-12-11T02:01:33.378Z,32.75
2022-12-11T02:03:34.745Z,34.20
2022-12-11T02:05:36.527Z,33.60
2022-12-11T02:07:40.373Z,34.35
2022-12-11T02:09:43.621Z,32.92
2022-12-11T02:11:48.061Z,32.97
2022-12-11T02:13:55.578Z,33.63
2022-12-11T02:16:00.787Z,30.83
2022-12-11T02:18:02.169Z,33.28
2022-12-11T02:20:03.888Z,33.40
2022-12-11T02:22:08.345Z,30.50
2022-12-11T02:24:12.312Z,30.00
2022-12-11T02:26:25.140Z,32.15
2022-12-11T02:28:29.441Z,30.25
2022-12-11T02:30:31.756Z,31.90
2022-12-11T02:32:36.268Z,30.65
2022-12-11T02:34:41.700Z,30.48
2022-12-11T02:36:50.855Z,30.45
2022-12-11T02:38:53.385Z,31.27
2022-12-11T02:40:55.951Z,31.60
2022-12-11T02:42:58.975Z,28.50
2022-12-11T02:45:01.697Z,29.95
2022-12-11T02:47:04.174Z,31.23
2022-12-11T02:49:06.913Z,27.98
2022-12-11T02:51:09.079Z,30.77
2022-12-11T02:53:12.364Z,35.20
2022-12-11T02:55:15.092Z,33.47
2022-12-11T02:57:19.202Z,32.38
2022-12-11T02:59:23.946Z,35.55
2022-12-11T03:01:25.925Z,33.33
2022-12-11T03:03:28.959Z,31.92
2022-12-11T03:05:30.746Z,33.53
2022-12-11T03:07:34.067Z,33.75
2022-12-11T03:09:35.384Z,34.30
2022-12-11T03:11:36.766Z,37.03
2022-12-11T03:13:39.072Z,36.20
2022-12-11T03:15:55.382Z,42.22
2022-12-11T03:18:09.812Z,42.70
2022-12-11T03:20:17.327Z,41.38
2022-12-11T03:22:21.002Z,40.78
2022-12-11T03:24:38.658Z,41.92
2022-12-11T03:26:42.662Z,63.88
2022-12-11T03:28:44.052Z,61.00
2022-12-11T03:30:46.441Z,52.20
2022-12-11T03:32:50.492Z,53.60
2022-12-11T03:34:58.450Z,52.55
2022-12-11T03:37:00.775Z,46.83
2022-12-11T03:39:06.296Z,46.15
2022-12-11T03:41:07.779Z,46.25
2022-12-11T03:43:10.934Z,41.67
2022-12-11T03:45:13.449Z,46.40
2022-12-11T03:47:17.178Z,43.22
2022-12-11T03:49:21.069Z,41.60
2022-12-11T03:51:24.115Z,41.35
2022-12-11T03:53:26.553Z,44.15
2022-12-11T03:55:28.080Z,45.50
2022-12-11T03:57:31.629Z,46.15
2022-12-11T03:59:32.976Z,45.13
2022-12-11T04:01:35.259Z,44.58
2022-12-11T04:03:38.990Z,44.60
2022-12-11T04:05:44.849Z,44.58
2022-12-11T04:07:46.293Z,42.13
2022-12-11T04:09:47.683Z,42.17
2022-12-11T04:11:49.133Z,45.28
2022-12-11T04:14:10.439Z,44.22
2022-12-11T04:16:11.809Z,43.33
2022-12-11T04:18:31.711Z,41.28
2022-12-11T04:20:51.573Z,40.05
2022-12-11T04:23:11.506Z,41.67
2022-12-11T04:25:12.948Z,42.25
2022-12-11T04:27:14.629Z,36.85
2022-12-11T04:29:16.105Z,41.42
2022-12-11T04:31:18.797Z,41.53
2022-12-11T04:33:20.200Z,37.90
2022-12-11T04:35:21.918Z,39.88
2022-12-11T04:37:23.286Z,41.10
2022-12-11T04:39:24.634Z,45.40
2022-12-11T04:41:26.033Z,41.58
2022-12-11T04:43:27.885Z,36.20
2022-12-11T04:45:29.226Z,37.42
2022-12-11T04:47:30.623Z,38.55
2022-12-11T04:49:31.937Z,36.33
2022-12-11T04:51:33.292Z,39.33
2022-12-11T04:53:34.836Z,38.53
2022-12-11T04:55:36.172Z,39.10
2022-12-11T04:57:37.587Z,37.95
2022-12-11T04:59:39.090Z,39.60
2022-12-11T05:01:40.529Z,39.55
2022-12-11T05:03:42.414Z,34.83
2022-12-11T05:05:53.543Z,37.65
2022-12-11T05:07:54.917Z,38.28
2022-12-11T05:09:56.201Z,31.83
2022-12-11T05:11:57.511Z,31.27
2022-12-11T05:13:58.872Z,29.55
2022-12-11T05:16:00.310Z,33.97
2022-12-11T05:18:01.664Z,32.22
2022-12-11T05:20:03.281Z,33.45
2022-12-11T05:22:04.665Z,32.72
2022-12-11T05:24:06.105Z,33.40
2022-12-11T05:26:10.828Z,34.20
2022-12-11T05:28:12.189Z,30.58
2022-12-11T05:30:13.581Z,31.73
2022-12-11T05:32:14.965Z,35.42
2022-12-11T05:34:16.299Z,37.65
2022-12-11T05:36:22.177Z,35.70
2022-12-11T05:38:23.594Z,35.85
2022-12-11T05:40:24.901Z,36.28
2022-12-11T05:42:28.953Z,37.05
2022-12-11T05:44:30.599Z,36.42
2022-12-11T05:46:31.986Z,34.33
2022-12-11T05:48:33.585Z,37.00
2022-12-11T05:50:34.926Z,36.15
2022-12-11T05:52:36.398Z,35.47
2022-12-11T05:54:37.822Z,35.42
2022-12-11T05:56:39.425Z,36.10
2022-12-11T05:58:41.746Z,30.10
2022-12-11T06:00:43.459Z,31.63
2022-12-11T06:02:44.878Z,31.23
2022-12-11T06:04:46.408Z,31.17
2022-12-11T06:06:47.770Z,30.27
2022-12-11T06:08:52.613Z,33.08
2022-12-11T06:10:53.936Z,35.28
2022-12-11T06:12:55.255Z,34.80
2022-12-11T06:14:56.608Z,33.80
2022-12-11T06:16:57.895Z,30.23
2022-12-11T06:18:59.367Z,33.92
2022-12-11T06:21:00.760Z,30.05
2022-12-11T06:23:02.095Z,29.60
2022-12-11T06:25:03.625Z,31.05
2022-12-11T06:27:04.927Z,26.52
2022-12-11T06:29:11.032Z,31.42
2022-12-11T06:31:14.514Z,28.70
2022-12-11T06:33:17.303Z,29.75
2022-12-11T06:35:18.645Z,32.95
2022-12-11T06:37:19.963Z,28.63
2022-12-11T06:39:21.211Z,30.17
2022-12-11T06:41:22.584Z,31.15
2022-12-11T06:43:24.590Z,34.10
2022-12-11T06:45:25.889Z,32.75
2022-12-11T06:47:27.625Z,35.92
2022-12-11T06:49:28.950Z,36.05
2022-12-11T06:51:31.124Z,35.08
2022-12-11T06:53:32.467Z,32.60
2022-12-11T06:55:36.903Z,35.25
2022-12-11T06:57:38.375Z,36.00
2022-12-11T06:59:39.737Z,34.65
2022-12-11T07:01:41.043Z,34.58
2022-12-11T07:03:42.429Z,35.95
2022-12-11T07:05:43.802Z,35.50
2022-12-11T07:07:45.211Z,35.10
2022-12-11T07:09:46.517Z,34.63
2022-12-11T07:11:49.433Z,35.42
2022-12-11T07:13:50.956Z,35.42
2022-12-11T07:15:52.281Z,36.65
2022-12-11T07:17:53.708Z,32.90
2022-12-11T07:19:55.069Z,32.97
2022-12-11T07:21:56.412Z,32.03
2022-12-11T07:23:58.474Z,33.20
2022-12-11T07:26:03.537Z,33.08
2022-12-11T07:28:04.941Z,30.27
2022-12-11T07:30:06.660Z,31.17
2022-12-11T07:32:08.120Z,29.05
2022-12-11T07:34:11.535Z,32.08
2022-12-11T07:36:14.472Z,30.52
2022-12-11T07:38:15.776Z,27.48
2022-12-11T07:40:17.177Z,26.52
2022-12-11T07:42:18.506Z,25.10
2022-12-11T07:44:19.849Z,26.75
2022-12-11T07:46:25.232Z,30.05
2022-12-11T07:48:26.537Z,26.80
2022-12-11T07:50:27.949Z,28.75
2022-12-11T07:52:31.373Z,27.10
2022-12-11T07:54:32.658Z,27.63
2022-12-11T07:56:34.505Z,27.20
2022-12-11T07:58:36.137Z,28.98
2022-12-11T08:00:37.451Z,25.90
2022-12-11T08:02:38.941Z,31.67
2022-12-11T08:04:40.358Z,29.70
2022-12-11T08:06:42.292Z,25.70
2022-12-11T08:08:43.718Z,25.67
2022-12-11T08:10:45.194Z,26.33
2022-12-11T08:12:46.574Z,25.88
2022-12-11T08:14:48.090Z,28.48
2022-12-11T08:16:49.618Z,25.48
2022-12-11T08:18:51.098Z,27.48
2022-12-11T08:20:52.433Z,30.73
2022-12-11T08:22:58.923Z,29.48
2022-12-11T08:25:00.603Z,29.77
2022-12-11T08:27:01.944Z,29.08
2022-12-11T08:29:03.641Z,29.83
2022-12-11T08:31:06.636Z,30.27
2022-12-11T08:33:08.046Z,27.88
2022-12-11T08:35:10.080Z,27.33
2022-12-11T08:37:12.225Z,30.55
2022-12-11T08:39:13.591Z,32.88
2022-12-11T08:41:18.928Z,32.70
2022-12-11T08:43:20.420Z,29.90
2022-12-11T08:45:21.764Z,32.97
2022-12-11T08:47:23.174Z,32.53
2022-12-11T08:49:26.574Z,30.10
2022-12-11T08:51:30.472Z,35.45
2022-12-11T08:53:32.832Z,32.97
2022-12-11T08:55:34.180Z,33.97
2022-12-11T08:57:35.540Z,32.40
2022-12-11T08:59:36.893Z,31.10
2022-12-11T09:01:38.331Z,29.92
2022-12-11T09:03:40.191Z,30.75
2022-12-11T09:05:41.674Z,33.22
2022-12-11T09:07:42.997Z,31.48
2022-12-11T09:09:44.323Z,30.67
2022-12-11T09:11:45.668Z,33.08
2022-12-11T09:13:47.119Z,32.53
2022-12-11T09:15:48.554Z,29.75
2022-12-11T09:17:49.993Z,30.25
2022-12-11T09:19:51.274Z,33.38
2022-12-11T09:21:52.586Z,29.55
2022-12-11T09:23:59.813Z,30.08
2022-12-11T09:26:03.994Z,30.70
2022-12-11T09:28:05.284Z,32.28
2022-12-11T09:30:07.401Z,32.47
2022-12-11T09:32:10.418Z,34.10
2022-12-11T09:34:12.234Z,27.00
2022-12-11T09:36:13.793Z,28.38
2022-12-11T09:38:15.207Z,25.88
2022-12-11T09:40:16.689Z,32.03
2022-12-11T09:42:18.067Z,25.40
2022-12-11T09:44:32.622Z,23.77
2022-12-11T09:46:35.723Z,26.17
2022-12-11T09:48:38.136Z,25.00
2022-12-11T09:50:39.516Z,21.65
2022-12-11T09:52:40.830Z,26.50
2022-12-11T09:54:46.024Z,23.55
2022-12-11T09:57:05.159Z,23.00
2022-12-11T09:59:15.496Z,23.70
2022-12-11T10:01:28.801Z,20.42
2022-12-11T10:03:50.299Z,22.10
2022-12-11T10:05:51.643Z,26.73
2022-12-11T10:08:00.705Z,24.92
2022-12-11T10:10:18.682Z,26.08
2022-12-11T10:12:33.497Z,23.50
2022-12-11T10:14:53.775Z,24.65
2022-12-11T10:16:59.932Z,23.77
2022-12-11T10:19:01.509Z,22.98
2022-12-11T10:21:03.436Z,20.73
2022-12-11T10:23:08.573Z,21.88
2022-12-11T10:25:16.315Z,21.55
2022-12-11T10:27:22.043Z,19.55
2022-12-11T10:29:23.456Z,24.05
2022-12-11T10:31:36.851Z,23.75
2022-12-11T10:33:43.754Z,22.90
2022-12-11T10:35:48.243Z,24.73
2022-12-11T10:37:49.822Z,23.00
2022-12-11T10:39:51.202Z,21.25
2022-12-11T10:41:53.849Z,19.67
2022-12-11T10:43:55.178Z,21.58
2022-12-11T10:45:56.567Z,24.10
2022-12-11T10:48:10.491Z,24.13
2022-12-11T10:50:23.016Z,22.17
2022-12-11T10:52:27.244Z,22.02
2022-12-11T10:54:42.362Z,22.63
2022-12-11T10:56:46.389Z,23.45
2022-12-11T10:58:49.660Z,22.92
2022-12-11T11:01:08.184Z,20.83
2022-12-11T11:03:25.811Z,22.60
2022-12-11T11:05:30.037Z,22.83
2022-12-11T11:07:31.672Z,23.08
2022-12-11T11:09:36.178Z,23.75
2022-12-11T11:11:38.228Z,24.52
2022-12-11T11:13:39.653Z,21.52
2022-12-11T11:15:41.232Z,22.65
2022-12-11T11:17:55.753Z,22.55
2022-12-11T11:19:59.116Z,23.00
2022-12-11T11:22:01.859Z,25.48
2022-12-11T11:24:03.841Z,24.25
2022-12-11T11:26:07.601Z,24.17
2022-12-11T11:28:17.777Z,23.63
2022-12-11T11:30:34.011Z,21.33
2022-12-11T11:32:39.613Z,25.45
2022-12-11T11:34:40.930Z,24.65
2022-12-11T11:36:42.309Z,25.00
2022-12-11T11:38:46.421Z,25.90
2022-12-11T11:41:11.522Z,23.90
2022-12-11T11:43:34.592Z,24.27
2022-12-11T11:45:43.969Z,24.48
2022-12-11T11:47:50.876Z,23.05
2022-12-11T11:50:06.154Z,22.08
2022-12-11T11:52:26.468Z,21.30
2022-12-11T11:54:31.507Z,21.02
2022-12-11T11:56:37.505Z,24.60
2022-12-11T11:58:38.895Z,21.98
2022-12-11T12:00:40.287Z,20.95
2022-12-11T12:02:41.986Z,20.33
2022-12-11T12:04:45.786Z,22.55
2022-12-11T12:07:02.236Z,19.45
2022-12-11T12:09:29.111Z,21.23
2022-12-11T12:11:30.772Z,22.92
2022-12-11T12:13:52.268Z,21.10
2022-12-11T12:15:53.719Z,20.55
2022-12-11T12:17:57.635Z,21.05
2022-12-11T12:20:08.137Z,22.08
2022-12-11T12:22:15.540Z,22.65
2022-12-11T12:24:19.830Z,23.08
2022-12-11T12:26:25.565Z,19.02
2022-12-11T12:28:39.220Z,21.52
2022-12-11T12:30:46.014Z,20.17
2022-12-11T12:33:15.131Z,18.63
2022-12-11T12:35:36.735Z,18.40
2022-12-11T12:37:47.538Z,19.95
2022-12-11T12:40:07.618Z,22.98
2022-12-11T12:42:24.205Z,20.75
2022-12-11T12:44:30.367Z,20.80
2022-12-11T12:46:46.201Z,22.27
2022-12-11T12:48:48.099Z,20.48
2022-12-11T12:50:50.788Z,19.73
2022-12-11T12:52:53.591Z,23.45
2022-12-11T12:55:18.085Z,24.08
2022-12-11T12:57:19.684Z,26.67
2022-12-11T12:59:22.662Z,26.83
2022-12-11T13:01:28.491Z,24.50
2022-12-11T13:03:31.807Z,22.98
2022-12-11T13:05:34.224Z,26.73
2022-12-11T13:07:35.590Z,25.55
2022-12-11T13:09:36.973Z,28.23
2022-12-11T13:11:39.884Z,25.63
2022-12-11T13:13:47.971Z,26.80
2022-12-11T13:15:53.270Z,26.67
2022-12-11T13:17:56.799Z,27.77
2022-12-11T13:20:17.964Z,26.52
2022-12-11T13:24:26.330Z,26.67
2022-12-11T13:26:29.656Z,25.88
2022-12-11T13:28:48.425Z,26.27
2022-12-11T13:31:20.967Z,28.58
2022-12-11T13:33:23.004Z,27.30
2022-12-11T13:35:24.423Z,25.42
2022-12-11T13:37:34.301Z,29.00
2022-12-11T13:39:37.672Z,28.65
2022-12-11T13:41:39.048Z,26.85
2022-12-11T13:43:42.180Z,28.70
2022-12-11T13:45:49.516Z,28.08
2022-12-11T13:47:51.192Z,31.50
2022-12-11T13:49:54.875Z,27.77
2022-12-11T13:51:57.704Z,29.52
2022-12-11T13:54:06.691Z,29.17
2022-12-11T13:56:16.138Z,25.60
2022-12-11T13:58:21.632Z,26.08
2022-12-11T14:00:24.381Z,25.65
2022-12-11T14:02:38.166Z,27.05
2022-12-11T14:04:39.695Z,28.20
2022-12-11T14:06:41.295Z,25.90
2022-12-11T14:08:43.983Z,25.75
2022-12-11T14:10:45.446Z,28.33
2022-12-11T14:12:52.866Z,27.67
2022-12-11T14:14:57.038Z,24.55
2022-12-11T14:16:58.618Z,27.65
2022-12-11T14:19:04.363Z,27.98
2022-12-11T14:21:06.128Z,28.15
2022-12-11T14:23:08.564Z,29.13
2022-12-11T14:25:26.812Z,28.23
2022-12-11T14:27:28.330Z,29.85
2022-12-11T14:29:31.002Z,29.00
2022-12-11T14:31:42.104Z,27.67
2022-12-11T14:33:45.114Z,29.08
2022-12-11T14:35:47.267Z,28.60
2022-12-11T14:37:49.004Z,29.98
2022-12-11T14:39:56.521Z,30.65
2022-12-11T14:42:00.671Z,29.25
2022-12-11T14:44:03.810Z,28.10
2022-12-11T14:46:08.837Z,29.70
2022-12-11T14:48:15.167Z,30.85
2022-12-11T14:50:22.341Z,29.17
2022-12-11T14:52:25.808Z,27.02
2022-12-11T14:54:34.167Z,27.45
2022-12-11T14:56:35.660Z,29.38
2022-12-11T14:58:45.706Z,28.65
2022-12-11T15:00:57.568Z,25.27
2022-12-11T15:03:03.663Z,25.75
2022-12-11T15:05:13.995Z,27.60
2022-12-11T15:07:22.056Z,25.77
2022-12-11T15:09:38.295Z,24.67
2022-12-11T15:11:39.662Z,27.95
2022-12-11T15:13:46.702Z,26.05
2022-12-11T15:15:48.302Z,27.83
2022-12-11T15:17:53.026Z,24.83
2022-12-11T15:19:56.003Z,26.45
2022-12-11T15:22:08.430Z,27.00
2022-12-11T15:24:22.462Z,27.30
2022-12-11T15:26:37.316Z,25.20
2022-12-11T15:28:39.055Z,25.02
2022-12-11T15:30:40.592Z,24.98
2022-12-11T15:32:45.639Z,27.92
2022-12-11T15:34:47.330Z,25.05
2022-12-11T15:36:53.863Z,24.48
2022-12-11T15:38:55.285Z,27.70
2022-12-11T15:40:56.980Z,27.50
2022-12-11T15:43:01.224Z,25.42
2022-12-11T15:45:05.410Z,25.15
2022-12-11T15:47:13.323Z,24.98
2022-12-11T15:49:15.600Z,25.80
2022-12-11T15:51:17.141Z,28.40
2022-12-11T15:53:18.838Z,25.00
2022-12-11T15:55:20.837Z,26.83
2022-12-11T15:57:23.751Z,26.77
2022-12-11T15:59:25.240Z,23.23
2022-12-11T16:01:35.672Z,25.80
2022-12-11T16:03:37.698Z,24.85
2022-12-11T16:05:39.342Z,29.48
2022-12-11T16:07:40.780Z,25.67
2022-12-11T16:09:42.344Z,26.00
2022-12-11T16:11:43.644Z,26.13
2022-12-11T16:13:45.144Z,24.17
2022-12-11T16:15:47.217Z,27.08
2022-12-11T16:17:48.576Z,29.33
2022-12-11T16:19:50.043Z,27.83
2022-12-11T16:21:52.456Z,26.15
2022-12-11T16:23:53.832Z,27.17
2022-12-11T16:25:55.132Z,29.55
2022-12-11T16:27:57.197Z,29.02
2022-12-11T16:29:58.536Z,27.67
2022-12-11T16:31:59.916Z,27.15
2022-12-11T16:34:01.304Z,30.48
2022-12-11T16:36:02.750Z,28.63
2022-12-11T16:38:04.146Z,27.98
2022-12-11T16:40:06.668Z,29.08
2022-12-11T16:42:08.058Z,27.42
2022-12-11T16:44:10.439Z,25.50
2022-12-11T16:46:11.855Z,29.42
2022-12-11T16:48:13.215Z,27.33
2022-12-11T16:50:15.791Z,27.67
2022-12-11T16:52:21.977Z,25.95
2022-12-11T16:54:23.691Z,27.38
2022-12-11T16:56:26.714Z,26.92
2022-12-11T16:58:28.093Z,25.33
2022-12-11T17:00:29.430Z,30.60
2022-12-11T17:02:31.096Z,26.63
2022-12-11T17:04:32.620Z,26.83
2022-12-11T17:06:33.985Z,28.58
2022-12-11T17:08:35.373Z,26.02
2022-12-11T17:10:40.906Z,25.38
2022-12-11T17:12:42.291Z,30.10
2022-12-11T17:14:43.690Z,30.23
2022-12-11T17:16:45.022Z,28.98
2022-12-11T17:18:46.601Z,27.40
2022-12-11T17:20:47.941Z,27.20
2022-12-11T17:22:49.390Z,27.52
2022-12-11T17:24:50.664Z,24.67
2022-12-11T17:26:52.239Z,28.27
2022-12-11T17:28:53.677Z,28.08
2022-12-11T17:30:55.060Z,33.60
2022-12-11T17:32:56.454Z,29.20
2022-12-11T17:34:57.814Z,28.17
2022-12-11T17:36:59.241Z,28.63
2022-12-11T17:39:00.700Z,29.95
2022-12-11T17:41:05.692Z,30.30
2022-12-11T17:43:09.260Z,29.90
2022-12-11T17:45:11.069Z,29.17
2022-12-11T17:47:12.641Z,26.00
2022-12-11T17:49:14.045Z,29.25
2022-12-11T17:51:21.045Z,30.08
2022-12-11T17:53:22.952Z,30.80
2022-12-11T17:55:24.790Z,29.45
2022-12-11T17:57:26.176Z,31.77
2022-12-11T17:59:27.466Z,30.20
2022-12-11T18:01:28.837Z,29.42
2022-12-11T18:03:30.294Z,32.55
2022-12-11T18:05:32.213Z,32.65
2022-12-11T18:07:36.177Z,32.78
2022-12-11T18:09:39.377Z,29.00
2022-12-11T18:11:41.096Z,32.03
2022-12-11T18:13:43.652Z,28.67
2022-12-11T18:15:45.063Z,35.28
2022-12-11T18:17:46.353Z,33.28
2022-12-11T18:19:47.689Z,32.25
2022-12-11T18:21:49.098Z,36.85
2022-12-11T18:23:50.484Z,34.42
2022-12-11T18:25:51.962Z,35.05
2022-12-11T18:27:55.160Z,31.27
2022-12-11T18:29:56.543Z,32.72
2022-12-11T18:31:57.899Z,32.05
2022-12-11T18:33:59.444Z,29.63
2022-12-11T18:36:00.767Z,32.40
2022-12-11T18:38:02.230Z,30.70
2022-12-11T18:40:07.348Z,32.22
2022-12-11T18:42:32.432Z,31.33
2022-12-11T18:44:30.109Z,28.52
2022-12-11T18:46:31.448Z,29.52
2022-12-11T18:48:32.985Z,31.65
2022-12-11T18:50:34.467Z,31.92
2022-12-11T18:52:35.864Z,31.67
2022-12-11T18:54:37.270Z,32.13
2022-12-11T18:56:38.883Z,28.65
2022-12-11T18:58:40.661Z,30.40
2022-12-11T19:00:42.769Z,32.97
2022-12-11T19:02:44.309Z,28.95
2022-12-11T19:04:45.730Z,34.20
2022-12-11T19:06:47.282Z,29.98
2022-12-11T19:08:48.698Z,29.15
2022-12-11T19:10:50.077Z,31.08
2022-12-11T19:12:51.641Z,32.42
2022-12-11T19:14:53.071Z,29.98
2022-12-11T19:16:54.386Z,32.20
2022-12-11T19:18:57.584Z,33.88
2022-12-11T19:21:06.749Z,33.35
2022-12-11T19:23:10.251Z,29.17
2022-12-11T19:25:11.914Z,32.75
2022-12-11T19:27:14.079Z,33.20
2022-12-11T19:29:24.712Z,32.58
2022-12-11T19:31:26.906Z,30.13
2022-12-11T19:33:28.234Z,30.60
2022-12-11T19:35:29.580Z,32.17
2022-12-11T19:37:33.972Z,35.22
2022-12-11T19:39:37.808Z,28.83
2022-12-11T19:41:39.251Z,33.90
2022-12-11T19:43:40.627Z,30.05
2022-12-11T19:45:42.600Z,32.53
2022-12-11T19:47:46.364Z,32.03
2022-12-11T19:49:48.630Z,34.90
2022-12-11T19:51:50.384Z,33.85
2022-12-11T19:53:54.603Z,30.00
2022-12-11T19:55:58.400Z,33.50
2022-12-11T19:58:01.308Z,31.27
2022-12-11T20:00:03.269Z,34.28
2022-12-11T20:02:05.062Z,35.92
2022-12-11T20:04:08.097Z,36.42
2022-12-11T20:06:10.360Z,35.10
2022-12-11T20:08:43.073Z,33.70
2022-12-11T20:10:38.818Z,32.22
2022-12-11T20:12:40.350Z,32.13
2022-12-11T20:14:41.884Z,32.72
2022-12-11T20:17:10.202Z,32.45
2022-12-11T20:19:05.248Z,34.10
2022-12-11T20:21:08.607Z,32.08
2022-12-11T20:23:10.028Z,62.80
2022-12-11T20:25:11.904Z,64.15
2022-12-11T20:27:13.558Z,70.18
2022-12-11T20:29:15.506Z,37.22
2022-12-11T20:31:21.971Z,32.47
2022-12-11T20:33:28.738Z,30.83
2022-12-11T20:35:30.060Z,30.27
2022-12-11T20:37:31.981Z,30.77
2022-12-11T20:39:35.607Z,33.40
2022-12-11T20:41:36.961Z,36.20
2022-12-11T20:43:39.047Z,34.15
2022-12-11T20:45:40.654Z,30.65
2022-12-11T20:47:42.093Z,31.02
2022-12-11T20:49:43.738Z,30.88
2022-12-11T20:51:45.273Z,33.35
2022-12-11T20:53:47.736Z,32.00
2022-12-11T20:55:49.135Z,32.63
2022-12-11T20:57:50.625Z,33.13
2022-12-11T20:59:52.137Z,31.25
2022-12-11T21:01:54.027Z,35.45
2022-12-11T21:03:55.795Z,29.17
2022-12-11T21:05:57.283Z,31.77
2022-12-11T21:07:58.792Z,32.42
2022-12-11T21:10:00.275Z,33.35
2022-12-11T21:12:02.526Z,32.15
2022-12-11T21:14:04.236Z,34.25
2022-12-11T21:16:06.875Z,32.90
2022-12-11T21:18:09.002Z,30.33
2022-12-11T21:20:10.701Z,32.53
2022-12-11T21:22:12.098Z,32.83
2022-12-11T21:24:21.488Z,31.27
2022-12-11T21:26:22.953Z,32.55
2022-12-11T21:28:24.502Z,30.50
2022-12-11T21:30:26.559Z,33.03
2022-12-11T21:32:29.958Z,33.83
2022-12-11T21:34:31.374Z,33.40
2022-12-11T21:36:33.734Z,31.33
2022-12-11T21:38:35.345Z,33.95
2022-12-11T21:40:36.733Z,29.63
2022-12-11T21:42:38.170Z,31.63
2022-12-11T21:45:31.389Z,31.25
2022-12-11T21:47:01.561Z,29.98
2022-12-11T21:49:03.222Z,33.33
2022-12-11T21:51:15.255Z,28.15
2022-12-11T21:53:16.640Z,31.30
2022-12-11T21:55:20.848Z,31.58
2022-12-11T21:57:26.235Z,34.83
2022-12-11T21:59:28.685Z,31.73
2022-12-11T22:01:32.271Z,39.30
2022-12-11T22:03:33.780Z,44.13
2022-12-11T22:05:35.229Z,42.65
2022-12-11T22:07:36.557Z,45.30
2022-12-11T22:09:38.149Z,43.97
2022-12-11T22:11:40.368Z,43.58
2022-12-11T22:13:41.938Z,46.45
2022-12-11T22:15:43.301Z,44.78
2022-12-11T22:17:44.629Z,47.88
2022-12-11T22:19:46.263Z,41.90
2022-12-11T22:21:47.552Z,45.03
2022-12-11T22:23:49.087Z,42.30
2022-12-11T22:25:51.543Z,45.22
2022-12-11T22:27:52.982Z,46.10
2022-12-11T22:29:54.437Z,43.90
2022-12-11T22:31:55.812Z,37.13
2022-12-11T22:33:57.278Z,38.70
2022-12-11T22:35:59.520Z,38.13
2022-12-11T22:38:01.238Z,42.97
2022-12-11T22:40:02.920Z,42.50
2022-12-11T22:42:04.597Z,39.30
2022-12-11T22:44:05.985Z,40.72
2022-12-11T22:46:09.673Z,38.80
2022-12-11T22:48:11.193Z,38.00
2022-12-11T22:50:13.293Z,38.15
2022-12-11T22:52:14.656Z,38.33
2022-12-11T22:54:16.433Z,36.30
2022-12-11T22:56:17.991Z,34.58
2022-12-11T22:58:21.947Z,35.42
2022-12-11T23:00:23.626Z,33.20
2022-12-11T23:02:25.012Z,33.00
2022-12-11T23:04:26.456Z,32.38
2022-12-11T23:06:27.758Z,32.47
2022-12-11T23:08:29.335Z,30.33
2022-12-11T23:10:31.788Z,31.58
2022-12-11T23:12:33.330Z,31.27
2022-12-11T23:14:34.735Z,32.45
2022-12-11T23:16:36.113Z,31.88
2022-12-11T23:18:37.888Z,32.75
2022-12-11T23:20:39.265Z,30.98
2022-12-11T23:22:41.527Z,32.15
2022-12-11T23:24:43.082Z,31.30
